Time;durP1;ratioP1;P1;durP2;ratioP2;P2;SDS_P1;SDS_P2;PMS_P1;PMS_P2;Temp;Humidity;BMP_temperature;BMP_pressure;BME280_temperature;BME280_humidity;BME280_pressure;Samples;Min_cycle;Max_cycle;Signal;HPM_P1;HPM_P2
2023/03/22 06:58:10;;;;;;;3.80;2.50;;;;;;;;;;5110911;27;20290;-75
2023/03/22 07:05:24;;;;;;;3.60;2.73;;;8.10;99.90;;;;;;5172718;27;20287;-75
2023/03/22 07:10:10;;;;;;;5.87;3.23;;;;;;;;;;5130292;27;20302;-77
2023/03/22 07:12:37;;;;;;;3.60;3.23;;;;;;;;;;5129691;28;20183;-75
2023/03/22 07:15:03;;;;;;;3.20;2.90;;;9.00;99.90;;;;;;5131478;28;20258;-75
2023/03/22 07:17:29;;;;;;;4.33;2.63;;;9.40;99.90;;;;;;5130077;28;20194;-75
2023/03/22 07:19:54;;;;;;;4.47;2.93;;;9.30;99.90;;;;;;5131324;27;20633;-75
2023/03/22 07:22:21;;;;;;;3.73;2.67;;;9.30;99.90;;;;;;5131283;27;20243;-74
2023/03/22 07:24:48;;;;;;;4.33;2.80;;;9.40;99.90;;;;;;5136754;27;20192;-74
2023/03/22 07:27:14;;;;;;;5.03;3.30;;;9.80;99.90;;;;;;5145804;27;20183;-74
2023/03/22 07:29:40;;;;;;;7.47;3.47;;;10.10;99.90;;;;;;5130791;28;20195;-75
2023/03/22 07:32:06;;;;;;;10.37;5.40;;;10.60;99.90;;;;;;5129308;28;20252;-75
2023/03/22 07:34:31;;;;;;;16.13;7.93;;;11.50;99.90;;;;;;5130791;28;20539;-76
2023/03/22 07:36:57;;;;;;;18.73;9.63;;;12.50;99.90;;;;;;5130940;28;20185;-75
2023/03/22 07:39:27;;;;;;;9.63;4.90;;;13.30;99.90;;;;;;5131098;28;20179;-76
2023/03/22 07:41:54;;;;;;;6.30;3.40;;;14.20;99.90;;;;;;5130826;28;20736;-76
2023/03/22 07:44:20;;;;;;;4.73;2.80;;;14.50;99.90;;;;;;5129708;28;20284;-76
2023/03/22 07:46:46;;;;;;;3.53;2.40;;;14.90;99.90;;;;;;5130545;28;20171;-76
2023/03/22 07:49:12;;;;;;;3.33;2.60;;;15.10;99.90;;;;;;5129178;28;20199;-75
2023/03/22 07:51:38;;;;;;;4.67;2.70;;;15.30;98.30;;;;;;5130610;28;20187;-76
2023/03/22 07:54:04;;;;;;;5.47;2.30;;;15.70;96.10;;;;;;5129539;28;20224;-76
2023/03/22 07:56:29;;;;;;;3.87;2.20;;;16.30;94.80;;;;;;5129155;28;20258;-76
2023/03/22 07:58:55;;;;;;;5.07;2.23;;;16.00;93.80;;;;;;5130383;28;20199;-76
2023/03/22 08:01:21;;;;;;;5.53;2.20;;;16.00;93.60;;;;;;5130262;28;20195;-76
2023/03/22 08:03:47;;;;;;;3.43;2.33;;;16.40;92.40;;;;;;5130181;28;20177;-76
2023/03/22 08:06:13;;;;;;;3.60;2.40;;;16.20;92.00;;;;;;5128934;28;20266;-75
2023/03/22 08:08:38;;;;;;;3.00;2.20;;;16.50;91.90;;;;;;5130119;28;20201;-76
2023/03/22 08:11:05;;;;;;;2.40;2.17;;;16.80;90.80;;;;;;5129982;28;20192;-76
2023/03/22 08:13:31;;;;;;;4.03;1.90;;;16.80;91.60;;;;;;5129772;28;20278;-76
2023/03/22 08:15:57;;;;;;;3.07;2.00;;;17.00;89.70;;;;;;5130216;28;20654;-76
2023/03/22 08:18:23;;;;;;;3.83;2.27;;;17.30;87.40;;;;;;5128876;28;20171;-76
2023/03/22 08:20:56;;;;;;;5.70;2.00;;;17.30;87.40;;;;;;5118877;28;20689;-76
2023/03/22 08:23:23;;;;;;;5.63;1.63;;;17.40;86.70;;;;;;5116076;28;20606;-76
2023/03/22 08:25:49;;;;;;;3.37;1.97;;;17.50;86.10;;;;;;5116068;28;20172;-76
2023/03/22 08:28:16;;;;;;;3.23;2.30;;;17.50;86.00;;;;;;5116664;28;20199;-76
2023/03/22 08:30:45;;;;;;;2.50;2.00;;;17.30;84.70;;;;;;5116012;28;20187;-76
2023/03/22 08:33:12;;;;;;;2.80;2.00;;;17.10;85.20;;;;;;5115807;28;20164;-76
2023/03/22 08:35:38;;;;;;;3.13;2.27;;;17.00;86.40;;;;;;5116179;28;20164;-76
2023/03/22 08:38:04;;;;;;;3.57;2.10;;;17.70;84.60;;;;;;5115920;28;20182;-76
2023/03/22 08:40:30;;;;;;;3.37;2.13;;;17.80;84.80;;;;;;5115963;28;20168;-76
2023/03/22 08:42:57;;;;;;;4.70;2.17;;;18.10;82.40;;;;;;5115971;28;20523;-77
2023/03/22 08:45:23;;;;;;;5.40;2.47;;;17.90;87.30;;;;;;5115743;28;20749;-76
2023/03/22 08:47:49;;;;;;;5.70;2.53;;;18.10;81.70;;;;;;5115674;28;20172;-76
2023/03/22 08:50:14;;;;;;;2.60;2.13;;;18.00;82.40;;;;;;5114496;28;20171;-76
2023/03/22 08:52:40;;;;;;;4.93;2.40;;;17.40;83.50;;;;;;5115377;28;20259;-77
2023/03/22 08:55:07;;;;;;;3.27;2.40;;;17.20;83.30;;;;;;5116635;28;20164;-76
2023/03/22 08:57:34;;;;;;;4.93;2.40;;;17.20;85.50;;;;;;5116386;28;20600;-75
2023/03/22 08:59:59;;;;;;;3.20;2.40;;;17.20;84.70;;;;;;5115584;28;20189;-76
2023/03/22 09:02:25;;;;;;;5.40;2.23;;;17.20;85.10;;;;;;5115083;28;20188;-77
2023/03/22 09:04:51;;;;;;;5.03;2.30;;;17.70;83.80;;;;;;5115725;28;20596;-76
2023/03/22 09:07:19;;;;;;;3.00;2.37;;;18.10;82.60;;;;;;5115608;28;20179;-77
2023/03/22 09:09:45;;;;;;;2.63;2.37;;;18.00;82.90;;;;;;5114508;28;20661;-76
2023/03/22 09:12:11;;;;;;;3.67;2.50;;;17.80;80.80;;;;;;5115547;28;20205;-76
2023/03/22 09:14:37;;;;;;;4.50;2.47;;;17.30;81.10;;;;;;5115196;28;20164;-77
2023/03/22 09:17:03;;;;;;;3.60;2.53;;;17.00;82.70;;;;;;5114165;28;20171;-76
2023/03/22 09:19:30;;;;;;;3.10;2.37;;;17.10;81.50;;;;;;5115229;28;20167;-76
2023/03/22 09:21:56;;;;;;;2.73;2.43;;;17.20;83.20;;;;;;5115208;28;20188;-77
2023/03/22 09:24:22;;;;;;;2.63;2.43;;;17.10;81.20;;;;;;5115379;28;20175;-77
2023/03/22 09:26:48;;;;;;;3.30;2.87;;;16.70;83.60;;;;;;5115336;28;20533;-76
2023/03/22 09:29:14;;;;;;;3.70;2.33;;;16.90;87.40;;;;;;5115234;28;20191;-76
2023/03/22 09:31:40;;;;;;;4.07;2.90;;;17.60;82.60;;;;;;5113784;28;20648;-76
2023/03/22 09:34:06;;;;;;;3.33;2.10;;;17.30;81.90;;;;;;5115022;28;20171;-76
2023/03/22 09:36:31;;;;;;;6.57;2.30;;;17.10;80.20;;;;;;5114797;28;20168;-76
2023/03/22 09:38:58;;;;;;;6.03;2.20;;;17.00;80.50;;;;;;5114800;28;20179;-76
2023/03/22 09:41:43;;;;;;;4.40;2.40;;;17.10;79.80;;;;;;5114028;28;20199;-76
2023/03/22 09:44:24;;;;;;;4.03;2.50;;;16.90;80.80;;;;;;5114791;28;20198;-76
2023/03/22 09:46:53;;;;;;;3.80;2.53;;;17.10;83.20;;;;;;5115106;28;20247;-75
2023/03/22 09:49:25;;;;;;;5.03;2.30;;;17.30;82.70;;;;;;5114974;28;20237;-76
2023/03/22 09:51:52;;;;;;;2.57;2.00;;;17.50;83.60;;;;;;5114767;28;20191;-76
2023/03/22 09:54:26;;;;;;;2.40;2.10;;;17.60;79.80;;;;;;5114914;28;20160;-76
2023/03/22 09:57:15;;;;;;;3.10;2.10;;;17.70;81.50;;;;;;5113545;28;20633;-76
2023/03/22 09:59:52;;;;;;;2.73;2.10;;;18.20;82.70;;;;;;5104922;28;20538;-77
2023/03/22 10:02:35;;;;;;;2.50;2.00;;;18.50;79.50;;;;;;5114252;28;20617;-76
2023/03/22 10:05:36;;;;;;;6.03;2.27;;;18.50;77.70;;;;;;5114715;28;20659;-76
2023/03/22 10:08:35;;;;;;;2.67;2.30;;;18.90;77.80;;;;;;5090096;28;20609;-76
2023/03/22 10:11:01;;;;;;;2.47;2.20;;;18.90;78.50;;;;;;5113159;28;20203;-76
2023/03/22 10:13:55;;;;;;;3.47;2.30;;;19.00;78.30;;;;;;5114100;28;20171;-76
2023/03/22 10:16:28;;;;;;;2.10;1.87;;;18.90;78.30;;;;;;5114862;28;20238;-76
2023/03/22 10:19:03;;;;;;;2.97;2.00;;;19.10;76.80;;;;;;5112928;28;20549;-76
2023/03/22 10:21:29;;;;;;;3.73;2.40;;;19.00;77.10;;;;;;5114425;28;20663;-76
2023/03/22 10:24:16;;;;;;;2.30;1.93;;;18.80;77.40;;;;;;5113902;28;20168;-77
2023/03/22 10:26:46;;;;;;;4.33;2.20;;;18.70;75.20;;;;;;5114629;28;20187;-73
2023/03/22 10:29:53;;;;;;;2.53;2.00;;;18.70;76.80;;;;;;5114406;28;20194;-73
2023/03/22 10:32:28;;;;;;;3.63;2.20;;;18.90;76.30;;;;;;5084692;28;20203;-73
2023/03/22 10:34:53;;;;;;;3.30;2.10;;;19.20;76.20;;;;;;5114429;28;20619;-73
2023/03/22 10:37:30;;;;;;;2.23;2.03;;;19.20;73.10;;;;;;5114010;28;20200;-73
2023/03/22 10:40:04;;;;;;;2.70;2.20;;;19.30;72.30;;;;;;5113952;28;20239;-73
2023/03/22 10:42:31;;;;;;;2.73;2.00;;;18.90;73.60;;;;;;5113668;28;20262;-76
2023/03/22 10:45:01;;;;;;;2.80;2.03;;;18.70;76.30;;;;;;5113602;28;20175;-77
2023/03/22 10:47:59;;;;;;;3.20;2.03;;;19.30;74.00;;;;;;5113686;28;20212;-76
2023/03/22 10:50:55;;;;;;;2.20;1.97;;;19.90;72.90;;;;;;5043159;28;20192;-76
2023/03/22 10:53:38;;;;;;;5.43;2.10;;;19.70;72.10;;;;;;5095504;28;20575;-76
2023/03/22 10:56:04;;;;;;;3.90;2.50;;;19.90;77.60;;;;;;5113863;28;20677;-76
2023/03/22 10:58:34;;;;;;;2.93;1.90;;;19.80;72.10;;;;;;5113758;28;20179;-75
2023/03/22 11:01:15;;;;;;;2.20;2.00;;;20.00;71.90;;;;;;5113815;28;20572;-75
2023/03/22 11:03:42;;;;;;;3.90;2.23;;;19.80;69.80;;;;;;5113707;28;20605;-75
2023/03/22 11:06:18;;;;;;;2.77;1.67;;;19.70;70.70;;;;;;5113532;28;20168;-75
2023/03/22 11:08:45;;;;;;;2.67;1.90;;;20.00;70.90;;;;;;5113231;28;20329;-75
2023/03/22 11:11:31;;;;;;;3.13;1.57;;;20.50;67.10;;;;;;5112022;28;20199;-75
2023/03/22 11:14:12;;;;;;;1.80;1.70;;;20.50;67.10;;;;;;5113445;28;20175;-75
2023/03/22 11:16:54;;;;;;;3.33;1.77;;;20.30;68.80;;;;;;5113801;28;20168;-76
2023/03/22 11:19:26;;;;;;;3.57;1.50;;;20.70;68.50;;;;;;5113338;28;20222;-75
2023/03/22 11:21:55;;;;;;;3.17;1.50;;;20.60;64.30;;;;;;5113195;28;20531;-76
2023/03/22 11:24:25;;;;;;;2.57;1.47;;;20.50;67.00;;;;;;5112044;28;20261;-76
2023/03/22 11:27:15;;;;;;;3.00;1.77;;;20.40;67.50;;;;;;5113611;28;20463;-76
2023/03/22 11:29:45;;;;;;;2.43;1.80;;;20.10;65.10;;;;;;5112656;28;20207;-76
2023/03/22 11:32:35;;;;;;;2.10;1.70;;;20.40;66.60;;;;;;5112993;28;20195;-75
2023/03/22 11:35:12;;;;;;;2.03;1.83;;;21.10;66.50;;;;;;5104438;28;20181;-76
2023/03/22 11:37:49;;;;;;;4.13;1.80;;;21.00;64.90;;;;;;5113718;28;20167;-75
2023/03/22 11:40:23;;;;;;;2.70;1.70;;;20.80;62.90;;;;;;5113523;28;20638;-75
2023/03/22 11:42:52;;;;;;;1.70;1.43;;;20.70;61.60;;;;;;5111680;28;20184;-76
2023/03/22 11:45:41;;;;;;;1.50;1.40;;;20.60;61.20;;;;;;5113503;28;20194;-75
2023/03/22 11:48:20;;;;;;;2.53;1.50;;;21.20;59.50;;;;;;5113332;28;20244;-75
2023/03/22 11:50:46;;;;;;;1.30;1.20;;;21.50;57.90;;;;;;5113003;28;20188;-76
2023/03/22 11:53:25;;;;;;;3.60;1.17;;;21.30;58.70;;;;;;5112986;28;20164;-76
2023/03/22 11:55:54;;;;;;;2.47;1.17;;;21.10;57.00;;;;;;5115150;28;20217;-76
2023/03/22 11:58:47;;;;;;;2.50;1.30;;;21.10;57.80;;;;;;5117342;28;20182;-76
2023/03/22 12:01:36;;;;;;;2.00;1.13;;;21.40;56.80;;;;;;5116773;28;20278;-76
2023/03/22 12:04:07;;;;;;;1.90;1.40;;;21.40;55.30;;;;;;5116183;28;20560;-76
2023/03/22 12:06:38;;;;;;;4.43;1.50;;;21.20;57.50;;;;;;5117279;28;20156;-76
2023/03/22 12:09:09;;;;;;;2.53;1.83;;;21.40;58.00;;;;;;5116438;28;20204;-76
2023/03/22 12:11:47;;;;;;;1.80;1.50;;;21.90;57.80;;;;;;5116900;28;20273;-76
2023/03/22 12:14:28;;;;;;;1.50;1.37;;;22.30;58.60;;;;;;5116645;28;20159;-75
2023/03/22 12:16:56;;;;;;;1.93;1.23;;;22.60;55.90;;;;;;5116248;28;20156;-76
2023/03/22 12:19:48;;;;;;;1.37;1.20;;;21.90;54.50;;;;;;5116818;28;20628;-76
2023/03/22 12:22:25;;;;;;;1.47;1.37;;;21.80;54.60;;;;;;5115489;27;20229;-76
2023/03/22 12:24:50;;;;;;;1.50;1.40;;;21.70;54.00;;;;;;5116657;28;20206;-76
2023/03/22 12:27:40;;;;;;;2.80;1.60;;;21.50;54.40;;;;;;5116371;28;20180;-76
2023/03/22 12:30:10;;;;;;;1.70;1.40;;;21.10;55.00;;;;;;5116288;28;20306;-76
2023/03/22 12:32:41;;;;;;;1.97;1.50;;;21.40;57.60;;;;;;5114697;28;20676;-76
2023/03/22 12:35:21;;;;;;;1.83;1.50;;;22.40;55.60;;;;;;5116420;28;20182;-76
2023/03/22 12:37:51;;;;;;;1.87;1.50;;;22.70;56.10;;;;;;5116383;28;20258;-76
2023/03/22 12:40:22;;;;;;;1.63;1.50;;;22.80;54.80;;;;;;5116531;28;20171;-76
2023/03/22 12:42:56;;;;;;;3.83;1.47;;;23.20;55.80;;;;;;5116057;28;20178;-75
2023/03/22 12:45:27;;;;;;;2.33;1.30;;;23.50;53.90;;;;;;5114865;28;20228;-75
2023/03/22 12:48:20;;;;;;;1.67;1.47;;;23.30;56.00;;;;;;5116197;28;20156;-76
2023/03/22 12:50:54;;;;;;;1.30;1.10;;;23.00;55.00;;;;;;5115897;28;20191;-76
2023/03/22 12:53:25;;;;;;;5.00;1.40;;;22.70;53.10;;;;;;5115700;28;20164;-75
2023/03/22 12:55:51;;;;;;;2.10;1.47;;;21.70;54.30;;;;;;5115988;28;20170;-75
2023/03/22 12:58:20;;;;;;;3.03;1.40;;;21.50;55.40;;;;;;5116045;28;20186;-75
2023/03/22 13:00:52;;;;;;;1.57;1.33;;;21.70;56.30;;;;;;5115589;28;20629;-75
2023/03/22 13:03:36;;;;;;;1.53;1.33;;;21.90;54.60;;;;;;5115594;28;20537;-76
2023/03/22 13:06:26;;;;;;;1.40;1.30;;;22.30;55.70;;;;;;5115746;28;20261;-75
2023/03/22 13:09:14;;;;;;;1.43;1.23;;;22.80;53.70;;;;;;5115405;28;20570;-76
2023/03/22 13:11:42;;;;;;;1.40;1.20;;;23.50;52.10;;;;;;5115846;28;20306;-74
2023/03/22 13:14:12;;;;;;;1.57;1.30;;;24.10;55.10;;;;;;5115425;28;20617;-75
2023/03/22 13:16:52;;;;;;;1.80;1.60;;;23.90;51.90;;;;;;5115756;28;20612;-74
2023/03/22 13:19:25;;;;;;;1.80;1.30;;;24.10;55.10;;;;;;5115871;28;20163;-75
2023/03/22 13:22:18;;;;;;;1.40;1.20;;;24.20;52.40;;;;;;5115199;28;20192;-75
2023/03/22 13:25:15;;;;;;;1.93;1.40;;;23.70;50.00;;;;;;5115802;27;20250;-75
2023/03/22 13:27:51;;;;;;;1.50;1.27;;;23.10;50.70;;;;;;5114246;28;20208;-75
2023/03/22 13:30:20;;;;;;;1.47;1.33;;;23.10;52.20;;;;;;5115361;28;20237;-75
2023/03/22 13:32:53;;;;;;;5.77;1.33;;;23.00;51.20;;;;;;5115160;28;20235;-75
2023/03/22 13:35:38;;;;;;;1.57;1.20;;;22.90;52.70;;;;;;5115352;28;20155;-75
2023/03/22 13:38:24;;;;;;;5.23;1.40;;;22.90;53.80;;;;;;5115300;28;20209;-74
2023/03/22 13:41:00;;;;;;;2.43;1.30;;;21.80;51.00;;;;;;5114874;28;20187;-74
2023/03/22 13:43:42;;;;;;;2.80;1.40;;;20.60;51.70;;;;;;5114618;28;20160;-74
2023/03/22 13:46:08;;;;;;;2.47;1.30;;;20.50;50.90;;;;;;5113840;28;20172;-74
2023/03/22 13:48:42;;;;;;;3.03;1.53;;;21.50;51.00;;;;;;5114624;28;20207;-74
2023/03/22 13:51:13;;;;;;;1.70;1.10;;;22.20;49.10;;;;;;5114658;28;20197;-74
2023/03/22 13:53:44;;;;;;;1.40;1.27;;;23.10;47.50;;;;;;5114467;28;20159;-74
2023/03/22 13:56:12;;;;;;;2.93;1.30;;;22.80;48.50;;;;;;5114833;28;20245;-74
2023/03/22 13:58:53;;;;;;;1.80;1.40;;;22.90;49.20;;;;;;5113207;28;20218;-74
2023/03/22 14:01:46;;;;;;;1.73;1.20;;;23.60;50.60;;;;;;5114446;28;20284;-74
2023/03/22 14:04:23;;;;;;;1.50;1.37;;;24.50;52.60;;;;;;5114584;28;20169;-74
2023/03/22 14:07:15;;;;;;;1.50;1.40;;;24.90;48.80;;;;;;5115038;28;20201;-75
2023/03/22 14:09:56;;;;;;;3.10;1.63;;;23.40;49.00;;;;;;5113282;28;20285;-75
2023/03/22 14:12:30;;;;;;;4.50;1.60;;;23.50;51.00;;;;;;5114460;28;20207;-74
2023/03/22 14:14:59;;;;;;;1.70;1.40;;;23.40;48.80;;;;;;5112809;28;20259;-74
2023/03/22 14:17:32;;;;;;;1.30;1.10;;;23.90;50.70;;;;;;5114110;28;20675;-74
2023/03/22 14:19:58;;;;;;;3.10;1.60;;;24.60;47.00;;;;;;5114362;28;20169;-75
2023/03/22 14:22:32;;;;;;;1.40;1.20;;;24.50;47.80;;;;;;5114139;28;20190;-74
2023/03/22 14:24:59;;;;;;;1.27;1.17;;;23.80;47.30;;;;;;5114293;28;20250;-75
2023/03/22 14:27:26;;;;;;;2.20;1.37;;;22.70;47.40;;;;;;5114043;28;20171;-75
2023/03/22 14:29:52;;;;;;;3.70;1.20;;;21.90;47.70;;;;;;5114119;28;20207;-75
2023/03/22 14:32:22;;;;;;;1.33;1.23;;;21.60;49.60;;;;;;5113818;27;20218;-75
2023/03/22 14:34:52;;;;;;;2.50;1.67;;;21.40;50.20;;;;;;5114161;27;20180;-75
2023/03/22 14:37:19;;;;;;;1.70;1.60;;;20.70;49.40;;;;;;5112530;28;20687;-75
2023/03/22 14:39:49;;;;;;;6.03;1.70;;;20.00;50.80;;;;;;5113706;27;20552;-74
2023/03/22 14:42:21;;;;;;;2.40;1.70;;;19.90;51.60;;;;;;5113529;28;20274;-74
2023/03/22 14:44:51;;;;;;;3.00;1.50;;;20.00;51.60;;;;;;5114814;28;20618;-77
2023/03/22 14:47:24;;;;;;;7.43;1.63;;;19.90;52.80;;;;;;5114144;28;20172;-75
2023/03/22 14:49:53;;;;;;;2.37;1.40;;;19.90;53.00;;;;;;5113107;28;20185;-75
2023/03/22 14:52:22;;;;;;;1.60;1.50;;;19.70;52.20;;;;;;5112603;28;20602;-75
2023/03/22 14:55:00;;;;;;;2.27;1.50;;;19.50;52.60;;;;;;5112754;28;20585;-75
2023/03/22 14:57:27;;;;;;;1.60;1.33;;;19.60;53.00;;;;;;5112618;28;20157;-75
2023/03/22 14:59:55;;;;;;;2.13;1.60;;;19.70;52.40;;;;;;5112659;28;20200;-75
2023/03/22 15:02:40;;;;;;;2.50;1.40;;;19.60;51.30;;;;;;5113420;28;20188;-75
2023/03/22 15:05:16;;;;;;;2.33;1.47;;;19.70;52.10;;;;;;5112449;28;20171;-74
2023/03/22 15:07:54;;;;;;;2.87;1.50;;;20.10;50.40;;;;;;5112268;28;20226;-75
2023/03/22 15:10:27;;;;;;;4.00;1.30;;;20.20;49.50;;;;;;5113432;28;20742;-75
2023/03/22 15:12:54;;;;;;;2.73;1.60;;;20.40;49.40;;;;;;5113564;28;20174;-75
2023/03/22 15:15:27;;;;;;;3.80;2.27;;;19.80;49.30;;;;;;5112013;28;20171;-74
2023/03/22 15:17:53;;;;;;;2.17;1.40;;;19.00;50.70;;;;;;5112002;28;20240;-74
2023/03/22 15:20:28;;;;;;;2.47;1.33;;;18.80;51.50;;;;;;5113330;28;20172;-75
2023/03/22 15:22:58;;;;;;;1.70;1.60;;;18.70;52.40;;;;;;5113390;28;20249;-74
2023/03/22 15:25:32;;;;;;;2.00;1.70;;;18.90;52.00;;;;;;5113289;28;20605;-74
2023/03/22 15:28:07;;;;;;;2.47;2.17;;;19.00;52.40;;;;;;5113761;28;20175;-74
2023/03/22 15:30:35;;;;;;;3.00;1.80;;;18.90;52.90;;;;;;5114860;28;20203;-74
2023/03/22 15:33:16;;;;;;;5.57;3.40;;;18.70;52.90;;;;;;5116037;28;20175;-74
2023/03/22 15:35:41;;;;;;;9.17;4.97;;;18.50;55.30;;;;;;5117501;28;20160;-74
2023/03/22 15:38:11;;;;;;;2.27;1.90;;;18.40;54.10;;;;;;5117474;28;20171;-75
2023/03/22 15:40:40;;;;;;;3.93;2.17;;;18.20;54.70;;;;;;5116260;28;20279;-76
2023/03/22 15:43:23;;;;;;;2.20;1.50;;;18.10;55.40;;;;;;5115828;28;20176;-74
2023/03/22 15:46:10;;;;;;;2.80;1.80;;;18.10;55.20;;;;;;5117301;28;20682;-76
2023/03/22 15:48:58;;;;;;;1.47;1.37;;;17.80;55.20;;;;;;5117147;28;20191;-76
2023/03/22 15:51:30;;;;;;;4.77;1.90;;;17.60;55.90;;;;;;5117138;28;20617;-74
2023/03/22 15:54:05;;;;;;;5.27;1.63;;;17.50;56.30;;;;;;5116806;28;20506;-75
2023/03/22 15:56:38;;;;;;;2.20;1.80;;;17.50;56.80;;;;;;5116896;28;20209;-76
2023/03/22 15:59:20;;;;;;;2.40;1.90;;;17.50;58.50;;;;;;5117324;28;20162;-76
2023/03/22 16:01:46;;;;;;;2.67;1.80;;;17.50;57.00;;;;;;5116609;28;20241;-76
2023/03/22 16:04:23;;;;;;;2.63;1.73;;;17.50;57.30;;;;;;5117355;28;20201;-76
2023/03/22 16:06:50;;;;;;;2.90;1.67;;;17.40;57.50;;;;;;5117428;28;20171;-76
2023/03/22 16:09:17;;;;;;;1.70;1.60;;;17.20;58.40;;;;;;5115215;28;20297;-76
2023/03/22 16:11:44;;;;;;;2.23;1.70;;;17.10;57.90;;;;;;5116612;28;20199;-77
2023/03/22 16:14:12;;;;;;;4.17;2.90;;;17.10;58.50;;;;;;5115648;28;20238;-76
2023/03/22 16:16:38;;;;;;;5.17;3.77;;;17.10;58.90;;;;;;5117057;28;20204;-76
2023/03/22 16:19:03;;;;;;;3.10;2.10;;;17.10;59.70;;;;;;5116945;28;20176;-76
2023/03/22 16:21:30;;;;;;;2.97;1.87;;;17.10;58.60;;;;;;5116975;28;20222;-76
2023/03/22 16:24:02;;;;;;;3.43;1.90;;;16.90;58.40;;;;;;5115225;28;20524;-76
2023/03/22 16:26:29;;;;;;;4.23;2.33;;;16.80;59.00;;;;;;5116223;28;20175;-76
2023/03/22 16:28:55;;;;;;;3.93;2.10;;;16.70;59.00;;;;;;5116002;28;20191;-75
2023/03/22 16:31:22;;;;;;;1.90;1.80;;;16.60;59.00;;;;;;5114197;28;20206;-76
2023/03/22 16:33:48;;;;;;;3.47;2.00;;;16.60;59.30;;;;;;5115480;28;20174;-75
2023/03/22 16:36:22;;;;;;;4.77;2.70;;;16.60;59.60;;;;;;5115983;28;20227;-76
2023/03/22 16:38:48;;;;;;;2.53;1.93;;;16.50;59.10;;;;;;5115750;28;20201;-76
2023/03/22 16:41:21;;;;;;;5.00;2.00;;;16.40;59.40;;;;;;5115168;28;20527;-76
2023/03/22 16:43:47;;;;;;;3.57;2.37;;;16.30;59.90;;;;;;5115551;28;20171;-76
2023/03/22 16:46:14;;;;;;;2.43;1.83;;;16.20;60.50;;;;;;5115897;28;20189;-75
2023/03/22 16:48:40;;;;;;;2.67;1.83;;;16.10;60.10;;;;;;5115883;28;20198;-75
2023/03/22 16:51:16;;;;;;;3.27;2.27;;;16.10;60.40;;;;;;5115989;28;20249;-76
2023/03/22 16:53:42;;;;;;;5.17;2.23;;;16.00;61.10;;;;;;5115937;28;20180;-75
2023/03/22 16:56:13;;;;;;;2.87;2.53;;;16.00;61.20;;;;;;5116492;28;20166;-76
2023/03/22 16:58:39;;;;;;;4.90;2.47;;;15.90;60.60;;;;;;5115902;28;20621;-76
2023/03/22 17:01:05;;;;;;;3.07;2.43;;;15.80;61.10;;;;;;5115963;28;20199;-75
